Time;durP1;ratioP1;P1;durP2;ratioP2;P2;SDS_P1;SDS_P2;PMS_P1;PMS_P2;Temp;Humidity;BMP_temperature;BMP_pressure;BME280_temperature;BME280_humidity;BME280_pressure;Samples;Min_cycle;Max_cycle;Signal;HPM_P1;HPM_P2
2022/04/16 00:00:55;;;;;;;7.10;3.58;;;12.30;65.20;;;;;;4901908;29;20035;-88
2022/04/16 00:03:24;;;;;;;5.10;3.20;;;12.20;65.20;;;;;;4887274;29;20039;-88
2022/04/16 00:05:55;;;;;;;5.10;3.17;;;12.20;65.40;;;;;;4900316;29;20240;-88
2022/04/16 00:08:21;;;;;;;5.05;3.40;;;12.20;65.70;;;;;;4899235;29;20522;-88
2022/04/16 00:10:48;;;;;;;5.85;3.30;;;12.20;65.60;;;;;;4875869;29;20052;-88
2022/04/16 00:13:14;;;;;;;5.85;3.55;;;12.10;66.40;;;;;;4894003;29;20114;-88
2022/04/16 00:15:40;;;;;;;5.03;3.33;;;12.10;65.80;;;;;;4875189;29;20499;-87
2022/04/16 00:18:06;;;;;;;5.03;3.40;;;12.10;65.90;;;;;;4909317;29;20123;-88
2022/04/16 00:20:33;;;;;;;5.82;3.85;;;12.10;65.90;;;;;;4890724;29;20237;-87
2022/04/16 00:22:58;;;;;;;5.40;3.40;;;12.10;65.90;;;;;;4878760;29;20698;-88
2022/04/16 00:25:24;;;;;;;5.90;3.67;;;12.00;65.90;;;;;;4899845;29;20032;-88
2022/04/16 00:27:50;;;;;;;5.82;3.60;;;12.00;66.00;;;;;;4887052;29;20568;-88
2022/04/16 00:30:18;;;;;;;5.47;3.87;;;12.00;66.20;;;;;;4898497;29;20035;-88
2022/04/16 00:32:45;;;;;;;5.82;3.97;;;12.00;66.30;;;;;;4883784;29;20028;-88
2022/04/16 00:35:13;;;;;;;5.72;3.60;;;11.90;66.30;;;;;;4895956;29;20024;-88
2022/04/16 00:37:39;;;;;;;5.38;3.63;;;11.90;66.40;;;;;;4887555;29;20027;-87
2022/04/16 00:40:06;;;;;;;5.87;3.50;;;11.90;66.40;;;;;;4895133;29;20048;-88
2022/04/16 00:42:39;;;;;;;4.68;3.30;;;11.90;66.60;;;;;;4872548;29;20074;-87
2022/04/16 00:45:06;;;;;;;6.25;3.65;;;11.90;67.00;;;;;;4912170;29;20115;-88
2022/04/16 00:47:31;;;;;;;5.13;3.58;;;11.80;66.70;;;;;;4900732;29;20031;-88
2022/04/16 00:49:57;;;;;;;5.20;3.30;;;11.80;66.70;;;;;;4885646;29;20236;-87
2022/04/16 00:52:23;;;;;;;4.70;3.20;;;11.80;66.70;;;;;;4892636;29;20174;-87
2022/04/16 00:54:50;;;;;;;4.72;3.17;;;11.80;66.80;;;;;;4876618;29;20028;-88
2022/04/16 00:57:17;;;;;;;5.18;3.17;;;11.80;66.90;;;;;;4885048;29;20481;-88
2022/04/16 00:59:42;;;;;;;5.65;3.70;;;11.80;67.00;;;;;;4896047;29;20093;-87
2022/04/16 01:02:09;;;;;;;5.40;3.57;;;11.70;67.10;;;;;;4886689;29;23081;-84
2022/04/16 01:04:35;;;;;;;5.28;3.50;;;11.70;67.20;;;;;;4877002;29;20704;-84
2022/04/16 01:07:01;;;;;;;4.82;3.42;;;11.70;67.20;;;;;;4903379;29;20171;-84
2022/04/16 01:09:26;;;;;;;5.70;3.60;;;11.70;67.20;;;;;;4891497;29;20091;-84
2022/04/16 01:11:52;;;;;;;6.03;4.20;;;11.60;67.30;;;;;;4854969;29;20683;-84
2022/04/16 01:14:19;;;;;;;4.93;3.20;;;11.60;67.20;;;;;;4882544;29;20317;-84
2022/04/16 01:16:45;;;;;;;5.22;3.35;;;11.60;67.50;;;;;;4890777;29;20044;-84
2022/04/16 01:19:11;;;;;;;5.88;3.38;;;11.60;67.60;;;;;;4886861;29;20028;-84
2022/04/16 01:21:37;;;;;;;4.83;3.20;;;11.50;67.60;;;;;;4885738;29;20402;-84
2022/04/16 01:24:05;;;;;;;4.90;3.15;;;11.60;67.80;;;;;;4875048;29;20124;-84
2022/04/16 01:26:31;;;;;;;5.05;3.40;;;11.50;67.80;;;;;;4912858;29;20151;-84
2022/04/16 01:28:57;;;;;;;5.90;3.80;;;11.50;67.90;;;;;;4865652;29;20024;-83
2022/04/16 01:31:22;;;;;;;5.70;3.60;;;11.50;67.90;;;;;;4912544;29;20032;-84
2022/04/16 01:33:48;;;;;;;5.07;3.33;;;11.50;67.90;;;;;;4864050;29;20032;-84
2022/04/16 01:36:14;;;;;;;5.87;3.60;;;11.50;67.80;;;;;;4884862;29;20258;-84
2022/04/16 01:38:39;;;;;;;5.50;3.33;;;11.50;68.00;;;;;;4871674;29;20032;-84
2022/04/16 01:41:05;;;;;;;6.03;3.67;;;11.40;68.00;;;;;;4901204;29;20042;-84
2022/04/16 01:43:31;;;;;;;4.57;3.05;;;11.40;68.10;;;;;;4887453;29;20252;-84
2022/04/16 01:45:57;;;;;;;5.57;3.40;;;11.40;68.10;;;;;;4912798;29;20036;-84
2022/04/16 01:48:27;;;;;;;5.03;3.13;;;11.40;68.20;;;;;;4909743;29;20242;-84
2022/04/16 01:50:54;;;;;;;5.40;3.47;;;11.40;68.10;;;;;;4889854;29;20031;-83
2022/04/16 01:53:20;;;;;;;5.53;3.25;;;11.30;68.20;;;;;;4909509;29;20122;-84
2022/04/16 01:55:45;;;;;;;5.23;3.30;;;11.30;68.20;;;;;;4890338;29;20094;-84
2022/04/16 01:58:11;;;;;;;4.85;3.33;;;11.30;68.20;;;;;;4893491;29;20342;-84
2022/04/16 02:00:37;;;;;;;5.80;3.33;;;11.30;68.30;;;;;;4901999;29;20023;-84
2022/04/16 02:03:03;;;;;;;4.80;3.13;;;11.30;68.40;;;;;;4895598;29;20090;-84
2022/04/16 02:05:28;;;;;;;4.97;3.13;;;11.30;68.40;;;;;;4910758;29;20040;-84
2022/04/16 02:07:54;;;;;;;4.97;3.30;;;11.20;68.40;;;;;;4904935;29;20032;-84
2022/04/16 02:10:20;;;;;;;5.72;3.50;;;11.20;68.40;;;;;;4870272;29;20071;-84
2022/04/16 02:12:45;;;;;;;4.80;3.07;;;11.20;68.50;;;;;;4882473;29;20111;-84
2022/04/16 02:15:12;;;;;;;5.63;3.53;;;11.10;68.40;;;;;;4872808;29;20382;-84
2022/04/16 02:17:38;;;;;;;5.80;3.47;;;11.20;68.60;;;;;;4878681;29;20078;-84
2022/04/16 02:20:06;;;;;;;5.57;3.60;;;11.10;68.60;;;;;;4896062;29;20032;-84
2022/04/16 02:22:58;;;;;;;5.60;3.73;;;11.10;68.80;;;;;;4902767;29;20103;-84
2022/04/16 02:25:24;;;;;;;5.63;3.28;;;11.10;69.70;;;;;;4869907;29;20243;-84
2022/04/16 02:27:51;;;;;;;5.03;3.30;;;11.00;68.70;;;;;;4888315;29;20043;-84
2022/04/16 02:30:17;;;;;;;5.30;3.00;;;11.00;68.80;;;;;;4880194;29;20036;-84
2022/04/16 02:32:45;;;;;;;4.70;3.13;;;11.00;68.80;;;;;;4911778;29;20036;-84
2022/04/16 02:35:13;;;;;;;6.07;3.42;;;11.00;68.90;;;;;;4872308;29;20460;-84
2022/04/16 02:37:39;;;;;;;5.40;3.28;;;11.00;68.90;;;;;;4900770;29;20029;-84
2022/04/16 02:40:06;;;;;;;5.68;3.22;;;10.90;68.90;;;;;;4879102;29;20064;-84
2022/04/16 02:42:36;;;;;;;5.80;3.58;;;10.90;68.90;;;;;;4894399;29;20120;-84
2022/04/16 02:47:55;;;;;;;7.00;3.60;;;10.80;69.00;;;;;;4896197;29;20039;-84
2022/04/16 02:50:24;;;;;;;6.32;3.42;;;10.80;69.20;;;;;;4871251;29;20051;-84
2022/04/16 02:52:51;;;;;;;5.15;3.38;;;10.80;69.10;;;;;;4884146;29;20532;-84
2022/04/16 02:55:16;;;;;;;9.35;3.80;;;10.70;69.10;;;;;;4907836;29;20020;-83
2022/04/16 02:57:46;;;;;;;7.77;3.70;;;10.70;69.20;;;;;;4891918;29;20141;-83
2022/04/16 03:00:13;;;;;;;5.72;3.80;;;10.70;69.40;;;;;;4897869;29;20535;-83
2022/04/16 03:02:39;;;;;;;5.35;3.33;;;10.70;69.20;;;;;;4885557;29;20173;-84
2022/04/16 03:05:09;;;;;;;5.63;3.50;;;10.70;69.20;;;;;;4891306;29;20024;-83
2022/04/16 03:07:36;;;;;;;5.97;3.67;;;10.60;69.30;;;;;;4899818;29;20040;-84
2022/04/16 03:10:03;;;;;;;5.35;3.40;;;10.60;69.40;;;;;;4897950;29;20040;-84
2022/04/16 03:12:40;;;;;;;5.28;3.33;;;10.50;69.40;;;;;;4891804;29;20038;-84
2022/04/16 03:17:50;;;;;;;7.07;3.60;;;10.50;69.60;;;;;;4888225;29;20462;-84
2022/04/16 03:20:16;;;;;;;4.88;3.30;;;10.40;69.50;;;;;;4901186;29;20028;-84
2022/04/16 03:22:43;;;;;;;6.00;3.63;;;10.40;69.70;;;;;;4887593;29;20527;-83
2022/04/16 03:25:09;;;;;;;7.18;3.92;;;10.30;69.90;;;;;;4896409;29;20035;-84
2022/04/16 03:27:36;;;;;;;5.72;3.75;;;10.30;69.70;;;;;;4899494;29;20035;-84
2022/04/16 03:30:06;;;;;;;6.80;3.67;;;10.30;69.90;;;;;;4893119;29;20024;-83
2022/04/16 03:32:32;;;;;;;6.38;3.67;;;10.30;70.10;;;;;;4901610;29;20309;-83
2022/04/16 03:34:57;;;;;;;5.77;3.50;;;10.30;70.10;;;;;;4887490;29;20035;-83
2022/04/16 03:37:27;;;;;;;6.68;3.80;;;10.20;70.10;;;;;;4893699;29;20111;-83
2022/04/16 03:39:53;;;;;;;5.90;3.60;;;10.20;70.20;;;;;;4893367;29;20032;-83
2022/04/16 03:42:19;;;;;;;5.30;3.42;;;10.20;70.20;;;;;;4902464;29;20591;-83
2022/04/16 03:44:45;;;;;;;6.60;3.95;;;10.20;70.20;;;;;;4883691;29;20059;-83
2022/04/16 03:47:13;;;;;;;6.47;3.60;;;10.20;70.30;;;;;;4885426;29;20020;-84
2022/04/16 03:49:38;;;;;;;6.55;3.70;;;10.20;70.40;;;;;;4886918;29;20027;-84
2022/04/16 03:52:05;;;;;;;6.13;3.90;;;10.10;70.30;;;;;;4880493;29;20389;-83
2022/04/16 03:59:59;;;;;;;5.40;3.20;;;10.00;70.40;;;;;;4903200;29;20243;-83
2022/04/16 04:02:25;;;;;;;6.13;3.57;;;10.00;70.50;;;;;;4902948;29;20027;-83
2022/04/16 04:04:51;;;;;;;5.35;3.30;;;10.00;70.60;;;;;;4892641;29;20106;-84
2022/04/16 04:07:17;;;;;;;6.53;4.10;;;10.00;70.70;;;;;;4901417;29;20016;-83
2022/04/16 04:09:44;;;;;;;6.13;3.75;;;9.90;71.40;;;;;;4883222;29;20448;-84
2022/04/16 04:12:10;;;;;;;7.10;4.10;;;9.90;70.70;;;;;;4911460;29;20142;-84
2022/04/16 04:14:38;;;;;;;6.83;3.70;;;9.80;70.60;;;;;;4879792;29;21547;-84
2022/04/16 04:17:06;;;;;;;6.22;3.65;;;9.80;70.80;;;;;;4883627;29;20020;-83
2022/04/16 04:19:31;;;;;;;6.15;3.70;;;9.90;70.80;;;;;;4871699;29;20028;-83
2022/04/16 04:21:57;;;;;;;5.95;3.85;;;9.80;70.90;;;;;;4869119;29;20453;-83
2022/04/16 04:24:23;;;;;;;5.97;3.60;;;9.80;70.90;;;;;;4866751;29;20034;-84
2022/04/16 04:26:48;;;;;;;6.23;3.77;;;9.80;71.00;;;;;;4897611;29;20358;-83
2022/04/16 04:29:14;;;;;;;6.28;3.85;;;9.80;71.10;;;;;;4903200;29;20099;-84
2022/04/16 04:31:39;;;;;;;7.10;3.90;;;9.70;71.00;;;;;;4897015;29;20201;-83
2022/04/16 04:34:05;;;;;;;6.63;4.10;;;9.80;71.20;;;;;;4886958;29;20115;-84
2022/04/16 04:36:31;;;;;;;6.03;3.87;;;9.70;71.20;;;;;;4860025;29;20555;-83
2022/04/16 04:38:56;;;;;;;6.20;3.83;;;9.70;71.30;;;;;;4896330;29;20043;-83
2022/04/16 04:41:22;;;;;;;5.93;3.75;;;9.70;71.30;;;;;;4881945;29;20070;-83
2022/04/16 04:43:47;;;;;;;5.83;3.80;;;9.70;71.30;;;;;;4911433;29;20032;-83
2022/04/16 04:46:13;;;;;;;6.47;4.10;;;9.70;71.50;;;;;;4904752;29;21022;-83
2022/04/16 04:48:39;;;;;;;6.23;3.77;;;9.70;71.60;;;;;;4901663;29;20031;-83
2022/04/16 04:51:04;;;;;;;6.15;3.65;;;9.60;71.60;;;;;;4874343;29;20393;-83
2022/04/16 04:53:30;;;;;;;6.37;3.73;;;9.60;71.70;;;;;;4913211;29;20433;-83
2022/04/16 04:55:55;;;;;;;7.87;4.30;;;9.60;71.70;;;;;;4882425;29;20040;-83
2022/04/16 04:58:21;;;;;;;7.85;3.97;;;9.60;71.70;;;;;;4886546;29;20042;-84
2022/04/16 05:00:46;;;;;;;6.33;3.83;;;9.60;71.70;;;;;;4883601;29;20031;-83
2022/04/16 05:03:12;;;;;;;6.63;4.13;;;9.60;71.70;;;;;;4896628;29;20070;-83
2022/04/16 05:05:38;;;;;;;6.50;4.07;;;9.60;72.50;;;;;;4898544;29;20273;-83
2022/04/16 05:08:03;;;;;;;7.10;4.27;;;9.60;71.80;;;;;;4876648;29;20110;-83
2022/04/16 05:10:29;;;;;;;6.53;3.97;;;9.50;71.80;;;;;;4873401;29;20095;-83
2022/04/16 05:12:58;;;;;;;6.18;4.00;;;9.50;71.90;;;;;;4885271;29;20714;-83
2022/04/16 05:15:24;;;;;;;6.50;3.87;;;9.50;72.10;;;;;;4897762;29;20039;-83
2022/04/16 05:17:49;;;;;;;6.35;3.95;;;9.50;72.00;;;;;;4889236;29;20714;-83
2022/04/16 05:20:16;;;;;;;6.83;4.10;;;9.50;72.10;;;;;;4888976;29;20516;-83
2022/04/16 05:22:41;;;;;;;6.13;4.10;;;9.50;72.20;;;;;;4857946;29;20473;-83
2022/04/16 05:25:08;;;;;;;5.93;3.90;;;9.50;72.20;;;;;;4885244;29;20207;-83
2022/04/16 05:27:34;;;;;;;5.60;3.78;;;9.50;72.40;;;;;;4881312;29;20459;-83
2022/04/16 05:32:45;;;;;;;7.43;3.97;;;9.50;72.40;;;;;;4916171;28;20526;-82
2022/04/16 05:35:11;;;;;;;6.88;4.28;;;9.50;72.40;;;;;;4898294;29;20592;-83
2022/04/16 05:37:37;;;;;;;6.85;4.30;;;9.50;72.50;;;;;;4869654;29;20031;-83
2022/04/16 05:40:06;;;;;;;6.88;4.32;;;9.50;72.70;;;;;;4895471;29;20035;-83
2022/04/16 05:42:32;;;;;;;8.27;4.90;;;9.60;72.90;;;;;;4901409;29;20052;-84
2022/04/16 05:45:04;;;;;;;6.72;4.15;;;9.60;72.90;;;;;;4886291;29;20035;-83
2022/04/16 05:47:30;;;;;;;8.13;4.88;;;9.60;73.10;;;;;;4897242;29;20035;-83
2022/04/16 05:49:55;;;;;;;7.50;4.50;;;9.60;72.90;;;;;;4886583;29;20314;-83
2022/04/16 05:52:22;;;;;;;7.23;4.57;;;9.70;73.00;;;;;;4872625;29;20424;-84
2022/04/16 05:54:49;;;;;;;7.53;4.30;;;9.70;73.00;;;;;;4887445;29;20064;-84
2022/04/16 05:57:16;;;;;;;7.97;4.68;;;9.70;73.10;;;;;;4882547;29;20028;-83
2022/04/16 05:59:43;;;;;;;7.38;4.15;;;9.80;73.20;;;;;;4878788;29;20544;-83
2022/04/16 06:02:10;;;;;;;7.57;4.20;;;9.80;73.30;;;;;;4900821;29;20250;-84
2022/04/16 06:04:36;;;;;;;8.43;4.47;;;9.80;73.30;;;;;;4907254;29;20024;-84
2022/04/16 06:07:02;;;;;;;7.45;4.47;;;9.90;73.50;;;;;;4879492;29;20635;-83
2022/04/16 06:09:28;;;;;;;7.30;4.72;;;9.90;73.50;;;;;;4886118;29;20491;-83
2022/04/16 06:12:04;;;;;;;8.63;4.97;;;10.00;73.60;;;;;;4874859;29;20224;-83
2022/04/16 06:14:30;;;;;;;8.45;4.95;;;10.00;74.00;;;;;;4887920;29;20091;-83
2022/04/16 06:16:56;;;;;;;8.93;5.15;;;10.00;73.80;;;;;;4898607;29;20714;-83
2022/04/16 06:19:24;;;;;;;7.68;4.93;;;10.10;73.80;;;;;;4895349;29;20392;-83
2022/04/16 06:21:50;;;;;;;7.57;4.33;;;10.10;74.00;;;;;;4883011;29;20087;-84
2022/04/16 06:24:16;;;;;;;7.63;4.70;;;10.20;74.10;;;;;;4903882;29;20477;-84
2022/04/16 06:26:42;;;;;;;9.07;5.30;;;10.30;74.30;;;;;;4886301;29;20027;-84
2022/04/16 06:29:08;;;;;;;8.53;5.17;;;10.40;74.10;;;;;;4893034;29;20139;-82
2022/04/16 06:31:34;;;;;;;8.95;5.70;;;10.50;74.30;;;;;;4886150;29;20139;-83
2022/04/16 06:34:00;;;;;;;9.23;5.65;;;10.60;74.20;;;;;;4893906;29;20635;-83
2022/04/16 06:36:25;;;;;;;9.43;5.70;;;10.60;74.20;;;;;;4877183;29;20177;-83
2022/04/16 06:38:52;;;;;;;10.25;6.18;;;10.70;74.40;;;;;;4871768;29;20040;-82
2022/04/16 06:41:17;;;;;;;11.73;6.78;;;10.80;74.50;;;;;;4899821;29;20036;-83
2022/04/16 06:43:43;;;;;;;8.50;5.67;;;10.90;74.70;;;;;;4904178;29;20074;-84
2022/04/16 06:46:09;;;;;;;8.50;5.55;;;11.10;75.10;;;;;;4919451;28;20035;-83
2022/04/16 06:48:34;;;;;;;9.50;5.57;;;11.20;75.90;;;;;;4908754;29;20440;-84
2022/04/16 06:51:00;;;;;;;11.27;6.97;;;11.50;76.70;;;;;;4882916;29;20115;-82
2022/04/16 06:53:27;;;;;;;10.43;7.07;;;11.80;77.50;;;;;;4899445;29;20114;-84
2022/04/16 06:55:52;;;;;;;11.32;6.50;;;12.10;77.30;;;;;;4874355;29;20063;-85
2022/04/16 06:58:18;;;;;;;9.53;6.13;;;12.40;76.90;;;;;;4918388;29;20481;-83
2022/04/16 07:00:43;;;;;;;11.70;7.05;;;12.80;76.50;;;;;;4865675;29;20416;-83
2022/04/16 07:03:09;;;;;;;10.93;6.73;;;13.00;75.90;;;;;;4902598;29;20319;-83
2022/04/16 07:05:35;;;;;;;11.20;7.47;;;13.20;75.40;;;;;;4882818;29;20181;-84
2022/04/16 07:08:00;;;;;;;10.05;6.47;;;13.40;75.20;;;;;;4880226;29;20258;-84
2022/04/16 07:10:26;;;;;;;10.20;6.53;;;13.60;75.20;;;;;;4875797;29;20044;-84
2022/04/16 07:12:51;;;;;;;9.27;6.28;;;13.80;75.20;;;;;;4858948;29;20548;-84
2022/04/16 07:15:17;;;;;;;11.13;7.20;;;14.00;75.10;;;;;;4892581;29;20123;-84
2022/04/16 07:17:45;;;;;;;10.93;7.15;;;14.30;75.60;;;;;;4891878;29;20096;-82
2022/04/16 07:20:11;;;;;;;11.17;7.17;;;14.50;76.30;;;;;;4895820;29;20040;-83
2022/04/16 07:22:37;;;;;;;11.40;7.45;;;14.80;76.70;;;;;;4870562;29;20331;-84
2022/04/16 07:25:04;;;;;;;10.75;7.05;;;15.20;76.80;;;;;;4889244;29;20263;-83
2022/04/16 07:27:31;;;;;;;9.88;6.68;;;15.60;76.80;;;;;;4895903;29;20024;-83
2022/04/16 07:29:58;;;;;;;11.50;7.13;;;15.90;76.60;;;;;;4874311;29;20536;-84
2022/04/16 07:32:25;;;;;;;10.37;6.60;;;16.30;76.10;;;;;;4902920;29;20051;-84
2022/04/16 07:34:51;;;;;;;11.18;7.40;;;16.60;75.80;;;;;;4899150;29;20036;-84
2022/04/16 07:37:17;;;;;;;10.40;6.80;;;16.90;75.60;;;;;;4892981;29;20093;-82
2022/04/16 07:39:43;;;;;;;8.40;6.30;;;17.30;75.00;;;;;;4876684;29;20024;-82
2022/04/16 07:42:08;;;;;;;9.45;7.20;;;17.50;74.80;;;;;;4865733;29;20309;-84
2022/04/16 07:44:37;;;;;;;10.73;7.30;;;17.80;74.20;;;;;;4876654;29;20024;-84
2022/04/16 07:47:03;;;;;;;10.70;7.27;;;18.10;73.20;;;;;;4894791;29;20288;-84
2022/04/16 07:49:28;;;;;;;9.48;6.47;;;18.40;73.40;;;;;;4907922;29;20028;-84
2022/04/16 07:51:54;;;;;;;9.93;7.03;;;18.70;73.70;;;;;;4882097;29;20254;-83
2022/04/16 07:54:20;;;;;;;8.88;6.68;;;19.00;73.30;;;;;;4879551;29;20645;-83
2022/04/16 07:56:45;;;;;;;8.03;5.97;;;19.40;73.20;;;;;;4887792;29;20036;-84
2022/04/16 07:59:12;;;;;;;8.50;6.32;;;19.70;73.30;;;;;;4866711;29;20036;-83
2022/04/16 08:01:38;;;;;;;7.97;5.72;;;20.10;73.00;;;;;;4888605;29;20056;-84
2022/04/16 08:04:04;;;;;;;7.17;5.50;;;20.50;72.70;;;;;;4904247;29;20556;-83
2022/04/16 08:06:30;;;;;;;9.38;6.35;;;20.80;72.10;;;;;;4892561;29;20028;-84
2022/04/16 08:09:00;;;;;;;8.57;5.50;;;21.10;70.60;;;;;;4876361;29;20402;-84
2022/04/16 08:11:29;;;;;;;7.78;5.90;;;21.40;69.40;;;;;;4896517;29;20703;-84
2022/04/16 08:13:54;;;;;;;8.33;6.60;;;21.70;68.60;;;;;;4880016;29;20035;-85
2022/04/16 08:16:20;;;;;;;8.02;5.68;;;21.90;67.60;;;;;;4861486;29;20112;-83
2022/04/16 08:18:46;;;;;;;7.53;5.40;;;22.10;67.00;;;;;;4891055;29;20100;-84
2022/04/16 08:21:11;;;;;;;7.32;5.53;;;22.20;66.70;;;;;;4886811;29;20360;-84
2022/04/16 08:23:44;;;;;;;7.07;5.25;;;22.50;66.80;;;;;;4868687;29;20028;-84
2022/04/16 08:26:10;;;;;;;7.47;5.80;;;22.60;66.20;;;;;;4863694;29;20226;-84
2022/04/16 08:28:36;;;;;;;6.55;5.00;;;22.90;65.80;;;;;;4889159;29;20032;-84
2022/04/16 08:31:02;;;;;;;6.97;5.80;;;23.10;65.90;;;;;;4868239;29;20046;-84
2022/04/16 08:33:28;;;;;;;7.17;5.53;;;23.40;64.30;;;;;;4864166;29;20036;-85
2022/04/16 08:35:53;;;;;;;6.53;4.97;;;23.60;64.30;;;;;;4905859;29;20389;-84
2022/04/16 08:38:19;;;;;;;6.33;4.83;;;23.80;63.80;;;;;;4881713;29;20171;-84
2022/04/16 08:40:47;;;;;;;6.78;5.45;;;24.00;63.10;;;;;;4888282;29;20046;-84
2022/04/16 08:43:13;;;;;;;6.55;4.88;;;24.20;61.80;;;;;;4880252;29;20531;-84
2022/04/16 08:45:40;;;;;;;6.80;4.78;;;24.50;62.70;;;;;;4864289;29;20043;-83
2022/04/16 08:48:06;;;;;;;6.03;4.53;;;24.70;62.20;;;;;;4862283;29;20188;-83
2022/04/16 08:50:33;;;;;;;6.95;5.20;;;24.90;62.00;;;;;;4891473;29;20335;-84
2022/04/16 08:52:59;;;;;;;6.10;5.18;;;25.10;59.80;;;;;;4890444;29;20043;-84
2022/04/16 08:55:26;;;;;;;5.72;4.22;;;25.20;59.90;;;;;;4872494;29;20896;-84
2022/04/16 08:57:53;;;;;;;5.47;4.47;;;25.40;59.70;;;;;;4894221;29;20386;-83
2022/04/16 09:00:19;;;;;;;3.57;2.97;;;25.60;57.90;;;;;;4845116;29;20516;-84
2022/04/16 09:02:54;;;;;;;3.33;2.70;;;25.70;57.40;;;;;;4880634;29;20040;-84
2022/04/16 09:05:20;;;;;;;3.70;2.88;;;25.80;55.90;;;;;;4894265;29;20044;-84
2022/04/16 09:07:48;;;;;;;4.40;3.13;;;25.90;56.50;;;;;;4886512;29;20044;-85
2022/04/16 09:10:15;;;;;;;5.13;3.53;;;26.00;55.60;;;;;;4898838;29;20032;-84
2022/04/16 09:12:41;;;;;;;4.30;3.30;;;26.10;54.70;;;;;;4888194;29;20028;-84
2022/04/16 09:15:09;;;;;;;4.43;3.00;;;26.20;55.20;;;;;;4880285;29;20469;-85
2022/04/16 09:17:36;;;;;;;3.20;2.60;;;26.40;55.50;;;;;;4859900;29;20190;-84
2022/04/16 09:20:03;;;;;;;3.80;2.92;;;26.50;54.60;;;;;;4879644;29;20059;-84
2022/04/16 09:22:31;;;;;;;3.72;3.03;;;26.60;53.90;;;;;;4891546;29;20028;-85
2022/04/16 09:24:56;;;;;;;4.30;2.80;;;26.80;53.10;;;;;;4873873;29;20368;-85
2022/04/16 09:27:22;;;;;;;3.45;2.92;;;26.90;53.50;;;;;;4886331;29;20047;-84
2022/04/16 09:29:47;;;;;;;3.83;3.10;;;27.00;53.60;;;;;;4881069;29;20056;-84
2022/04/16 09:32:25;;;;;;;2.45;2.17;;;27.20;53.60;;;;;;4860678;29;20031;-83
2022/04/16 09:34:52;;;;;;;2.97;2.42;;;27.40;52.00;;;;;;4897522;29;20457;-84
2022/04/16 09:37:19;;;;;;;2.67;2.10;;;27.60;51.50;;;;;;4897110;29;20417;-85
2022/04/16 09:39:44;;;;;;;2.60;2.00;;;27.70;50.40;;;;;;4899918;29;20035;-84
2022/04/16 09:42:10;;;;;;;3.00;2.30;;;27.80;50.80;;;;;;4872104;29;20326;-83
2022/04/16 09:44:36;;;;;;;1.83;1.63;;;27.80;48.40;;;;;;4885858;29;20033;-85
2022/04/16 09:47:03;;;;;;;2.60;2.00;;;27.80;49.00;;;;;;4886102;28;20381;-84
2022/04/16 09:49:32;;;;;;;3.40;2.50;;;27.80;47.10;;;;;;4903192;29;20043;-85
2022/04/16 09:52:02;;;;;;;2.90;2.20;;;27.70;46.90;;;;;;4886461;29;20128;-85
2022/04/16 09:54:29;;;;;;;2.00;1.80;;;27.60;47.10;;;;;;4907564;29;20079;-84
2022/04/16 09:57:01;;;;;;;3.38;2.92;;;27.70;48.90;;;;;;4875064;29;20032;-83
2022/04/16 09:59:30;;;;;;;3.08;2.58;;;27.90;48.70;;;;;;4897570;29;20020;-84
2022/04/16 10:01:56;;;;;;;2.80;2.47;;;28.10;49.00;;;;;;4886543;29;20228;-84
2022/04/16 10:04:21;;;;;;;2.65;2.30;;;28.30;48.60;;;;;;4866909;29;20040;-84
2022/04/16 10:06:48;;;;;;;3.30;2.73;;;28.50;48.00;;;;;;4889943;29;20034;-85
2022/04/16 10:09:17;;;;;;;3.15;2.38;;;28.60;47.40;;;;;;4890000;29;20437;-84
2022/04/16 10:14:56;;;;;;;3.17;2.33;;;28.80;44.90;;;;;;4911611;29;20075;-85
2022/04/16 10:17:22;;;;;;;2.88;2.30;;;28.80;45.30;;;;;;4908786;29;20123;-84
2022/04/16 10:19:48;;;;;;;2.43;1.93;;;28.90;46.00;;;;;;4868935;29;20392;-85
2022/04/16 10:22:25;;;;;;;3.95;2.08;;;29.00;46.20;;;;;;4889843;29;20032;-83
2022/04/16 10:24:57;;;;;;;2.60;1.80;;;29.20;43.60;;;;;;4875525;29;20052;-84
2022/04/16 10:27:42;;;;;;;2.23;2.03;;;29.30;44.20;;;;;;4880182;29;20036;-85
2022/04/16 10:30:12;;;;;;;2.85;2.30;;;29.40;41.50;;;;;;4888039;29;20238;-84
2022/04/16 10:32:41;;;;;;;2.13;1.92;;;29.50;44.20;;;;;;4875507;29;20575;-85
2022/04/16 10:35:12;;;;;;;2.95;2.22;;;29.60;44.20;;;;;;4883253;29;20294;-84
2022/04/16 10:37:40;;;;;;;3.00;2.03;;;29.60;42.20;;;;;;4884881;29;20390;-84
2022/04/16 10:40:16;;;;;;;2.70;2.00;;;29.60;42.30;;;;;;4878662;29;20032;-85
2022/04/16 10:42:51;;;;;;;2.45;1.90;;;29.60;41.00;;;;;;4897073;29;20358;-85
2022/04/16 10:45:17;;;;;;;3.10;2.42;;;29.60;41.10;;;;;;4881969;29;20393;-87
2022/04/16 10:47:43;;;;;;;2.78;1.98;;;29.70;42.30;;;;;;4873233;29;20033;-84
2022/04/16 10:50:13;;;;;;;2.47;2.08;;;29.80;42.20;;;;;;4890797;29;20414;-84
2022/04/16 10:52:38;;;;;;;2.87;2.40;;;29.80;40.70;;;;;;4897812;29;20135;-85
2022/04/16 10:55:05;;;;;;;3.30;2.70;;;29.80;41.80;;;;;;4891158;29;20033;-84
2022/04/16 10:57:30;;;;;;;2.85;2.25;;;29.80;42.10;;;;;;4890815;29;20040;-83
2022/04/16 10:59:57;;;;;;;3.80;2.60;;;29.90;41.90;;;;;;4895615;29;20449;-87
2022/04/16 11:02:27;;;;;;;2.90;2.60;;;30.00;40.30;;;;;;4857155;29;20115;-85
2022/04/16 11:05:01;;;;;;;3.88;2.83;;;30.10;40.70;;;;;;4903296;29;20031;-84
2022/04/16 11:07:31;;;;;;;3.47;2.70;;;30.10;39.60;;;;;;4864210;29;20392;-85
2022/04/16 11:09:57;;;;;;;2.83;2.53;;;30.10;39.50;;;;;;4901675;29;20226;-85
2022/04/16 11:12:23;;;;;;;3.70;2.92;;;30.10;39.20;;;;;;4892193;29;20457;-84
2022/04/16 11:14:50;;;;;;;3.50;2.80;;;30.00;39.00;;;;;;4899331;29;20079;-84
2022/04/16 11:17:16;;;;;;;3.00;2.40;;;30.00;39.30;;;;;;4884480;29;20035;-85
2022/04/16 11:19:44;;;;;;;3.40;2.63;;;30.00;39.90;;;;;;4866431;29;20343;-85
2022/04/16 11:22:11;;;;;;;3.17;2.78;;;30.00;39.10;;;;;;4866792;29;20036;-85
2022/04/16 11:24:37;;;;;;;3.97;2.72;;;30.10;39.40;;;;;;4882273;29;20278;-88
2022/04/16 11:35:21;;;;;;;3.13;2.72;;;29.80;38.50;;;;;;4877395;29;20122;-84
2022/04/16 11:37:53;;;;;;;3.50;2.80;;;29.80;38.70;;;;;;4890933;29;20036;-87
2022/04/16 11:40:19;;;;;;;3.10;2.60;;;29.90;38.50;;;;;;4906985;29;20034;-85
2022/04/16 11:42:45;;;;;;;3.30;2.73;;;30.00;38.60;;;;;;4906966;29;20049;-85
2022/04/16 11:45:10;;;;;;;3.80;3.25;;;30.10;39.10;;;;;;4904451;29;20622;-87
2022/04/16 11:47:37;;;;;;;3.53;3.15;;;30.20;37.70;;;;;;4901434;29;20099;-87
2022/04/16 11:50:06;;;;;;;3.07;2.70;;;30.30;37.50;;;;;;4894859;29;20374;-85
2022/04/16 11:52:33;;;;;;;4.07;3.00;;;30.40;37.90;;;;;;4860272;29;20828;-84
2022/04/16 11:55:13;;;;;;;3.28;2.70;;;30.40;37.50;;;;;;4896759;29;20547;-85
2022/04/16 11:57:45;;;;;;;3.22;2.60;;;30.50;36.20;;;;;;4876818;29;20616;-85
2022/04/16 12:00:11;;;;;;;3.38;2.88;;;30.60;35.50;;;;;;4885848;29;20619;-85
2022/04/16 12:02:47;;;;;;;3.10;2.80;;;30.60;37.50;;;;;;4868145;29;20273;-85
2022/04/16 12:05:23;;;;;;;4.85;3.10;;;30.70;36.70;;;;;;4904491;29;20026;-84
2022/04/16 12:07:49;;;;;;;3.53;3.13;;;30.80;37.00;;;;;;4872371;29;20062;-86
2022/04/16 12:10:16;;;;;;;3.80;2.90;;;31.00;37.80;;;;;;4901389;29;20131;-85
2022/04/16 12:12:48;;;;;;;3.30;2.75;;;31.00;37.50;;;;;;4876140;29;20267;-84
2022/04/16 12:15:24;;;;;;;3.20;2.80;;;31.20;37.20;;;;;;4891713;29;20032;-84
2022/04/16 12:17:52;;;;;;;3.03;2.65;;;31.40;36.50;;;;;;4878982;29;20094;-85
2022/04/16 12:20:20;;;;;;;3.10;2.70;;;31.60;37.80;;;;;;4890346;29;20028;-84
2022/04/16 12:23:00;;;;;;;2.92;2.50;;;31.80;37.40;;;;;;4852464;29;20039;-85
2022/04/16 12:25:26;;;;;;;3.40;2.65;;;31.80;33.70;;;;;;4905212;29;20084;-85
2022/04/16 12:27:54;;;;;;;3.73;2.90;;;31.80;35.00;;;;;;4898706;29;20042;-84
2022/04/16 12:30:24;;;;;;;4.18;2.35;;;31.60;34.40;;;;;;4862624;29;20320;-84
2022/04/16 12:33:10;;;;;;;4.10;2.72;;;31.40;35.30;;;;;;4899024;29;20063;-84
2022/04/16 12:35:47;;;;;;;4.50;2.85;;;31.40;31.70;;;;;;4888039;29;20039;-84
2022/04/16 12:38:17;;;;;;;3.70;2.83;;;31.20;33.60;;;;;;4861263;29;20217;-86
2022/04/16 12:40:43;;;;;;;3.10;2.47;;;31.20;35.00;;;;;;4908954;29;20035;-85
2022/04/16 12:43:09;;;;;;;3.08;2.40;;;31.10;34.40;;;;;;4856400;29;20058;-84
2022/04/16 12:45:35;;;;;;;3.00;2.50;;;31.00;34.40;;;;;;4872181;29;20731;-84
2022/04/16 12:48:01;;;;;;;2.83;2.30;;;30.80;34.60;;;;;;4879292;29;20016;-84
2022/04/16 12:50:28;;;;;;;4.50;2.67;;;30.80;35.00;;;;;;4897823;29;20084;-85
2022/04/16 12:52:54;;;;;;;2.97;2.10;;;30.80;35.00;;;;;;4872654;29;20247;-84
2022/04/16 12:55:20;;;;;;;3.33;2.17;;;30.80;35.20;;;;;;4885782;29;20801;-84
2022/04/16 12:57:46;;;;;;;2.70;2.13;;;30.90;35.40;;;;;;4887675;29;20255;-85
2022/04/16 13:00:14;;;;;;;2.63;2.07;;;31.00;35.30;;;;;;4878829;29;20058;-87
2022/04/16 13:02:42;;;;;;;2.35;2.13;;;31.10;34.70;;;;;;4894345;29;20286;-85
2022/04/16 13:05:12;;;;;;;2.72;2.30;;;31.20;34.70;;;;;;4878511;29;20091;-84
2022/04/16 13:07:39;;;;;;;2.25;2.00;;;31.20;33.30;;;;;;4864522;29;20032;-85
2022/04/16 13:10:06;;;;;;;3.40;2.05;;;31.20;34.70;;;;;;4881048;29;20476;-85
2022/04/16 13:12:33;;;;;;;2.83;2.33;;;31.20;34.60;;;;;;4895061;29;20104;-85